sensor_id;sensor_type;location;lat;lon;timestamp;P1;durP1;ratioP1;P2;durP2;ratioP2
20298;SDS011;10308;42.688;23.256;2023-07-29T00:01:05;7.85;;;6.28;;
20298;SDS011;10308;42.688;23.256;2023-07-29T00:03:32;13.95;;;9.77;;
20298;SDS011;10308;42.688;23.256;2023-07-29T00:06:00;12.93;;;8.38;;
20298;SDS011;10308;42.688;23.256;2023-07-29T00:08:28;11.18;;;8.48;;
20298;SDS011;10308;42.688;23.256;2023-07-29T00:10:57;9.73;;;7.65;;
20298;SDS011;10308;42.688;23.256;2023-07-29T00:13:27;6.28;;;5.68;;
20298;SDS011;10308;42.688;23.256;2023-07-29T00:15:59;7.10;;;5.32;;
20298;SDS011;10308;42.688;23.256;2023-07-29T00:18:29;5.82;;;5.22;;
20298;SDS011;10308;42.688;23.256;2023-07-29T00:21:00;5.60;;;4.95;;
20298;SDS011;10308;42.688;23.256;2023-07-29T00:23:28;5.88;;;5.03;;
20298;SDS011;10308;42.688;23.256;2023-07-29T00:25:56;4.93;;;4.53;;
20298;SDS011;10308;42.688;23.256;2023-07-29T00:28:27;5.03;;;4.35;;
20298;SDS011;10308;42.688;23.256;2023-07-29T00:30:55;5.40;;;4.90;;
20298;SDS011;10308;42.688;23.256;2023-07-29T00:33:23;6.22;;;5.20;;
20298;SDS011;10308;42.688;23.256;2023-07-29T00:35:52;8.10;;;5.50;;
20298;SDS011;10308;42.688;23.256;2023-07-29T00:38:20;6.82;;;6.18;;
20298;SDS011;10308;42.688;23.256;2023-07-29T00:40:48;6.88;;;5.65;;
20298;SDS011;10308;42.688;23.256;2023-07-29T00:43:15;5.50;;;5.00;;
20298;SDS011;10308;42.688;23.256;2023-07-29T00:45:43;5.28;;;4.80;;
20298;SDS011;10308;42.688;23.256;2023-07-29T00:48:12;5.32;;;4.10;;
20298;SDS011;10308;42.688;23.256;2023-07-29T00:50:40;4.65;;;4.25;;
20298;SDS011;10308;42.688;23.256;2023-07-29T00:53:09;4.88;;;4.05;;
20298;SDS011;10308;42.688;23.256;2023-07-29T00:55:38;5.03;;;4.25;;
20298;SDS011;10308;42.688;23.256;2023-07-29T00:58:06;5.25;;;4.45;;
20298;SDS011;10308;42.688;23.256;2023-07-29T01:00:34;5.05;;;3.95;;
20298;SDS011;10308;42.688;23.256;2023-07-29T01:03:04;4.47;;;4.07;;
20298;SDS011;10308;42.688;23.256;2023-07-29T01:05:44;4.10;;;3.80;;
20298;SDS011;10308;42.688;23.256;2023-07-29T01:08:27;6.07;;;3.75;;
20298;SDS011;10308;42.688;23.256;2023-07-29T01:11:03;5.90;;;4.03;;
20298;SDS011;10308;42.688;23.256;2023-07-29T01:13:43;4.57;;;4.00;;
20298;SDS011;10308;42.688;23.256;2023-07-29T01:16:13;4.47;;;4.07;;
20298;SDS011;10308;42.688;23.256;2023-07-29T01:18:45;4.60;;;4.20;;
20298;SDS011;10308;42.688;23.256;2023-07-29T01:21:15;4.50;;;4.10;;
20298;SDS011;10308;42.688;23.256;2023-07-29T01:23:47;5.75;;;4.30;;
20298;SDS011;10308;42.688;23.256;2023-07-29T01:26:14;5.72;;;4.28;;
20298;SDS011;10308;42.688;23.256;2023-07-29T01:28:42;5.38;;;4.25;;
20298;SDS011;10308;42.688;23.256;2023-07-29T01:31:10;6.75;;;4.95;;
20298;SDS011;10308;42.688;23.256;2023-07-29T01:33:44;5.53;;;4.40;;
20298;SDS011;10308;42.688;23.256;2023-07-29T01:36:21;5.43;;;4.50;;
20298;SDS011;10308;42.688;23.256;2023-07-29T01:38:51;4.82;;;4.40;;
20298;SDS011;10308;42.688;23.256;2023-07-29T01:41:23;6.38;;;4.50;;
20298;SDS011;10308;42.688;23.256;2023-07-29T01:43:51;5.50;;;4.53;;
20298;SDS011;10308;42.688;23.256;2023-07-29T01:46:20;5.22;;;4.57;;
20298;SDS011;10308;42.688;23.256;2023-07-29T01:48:48;4.72;;;4.38;;
20298;SDS011;10308;42.688;23.256;2023-07-29T01:51:16;7.10;;;4.72;;
20298;SDS011;10308;42.688;23.256;2023-07-29T01:53:43;6.30;;;4.70;;
20298;SDS011;10308;42.688;23.256;2023-07-29T01:56:16;5.53;;;4.85;;
20298;SDS011;10308;42.688;23.256;2023-07-29T01:58:44;5.68;;;5.18;;
20298;SDS011;10308;42.688;23.256;2023-07-29T02:01:12;6.22;;;5.63;;
20298;SDS011;10308;42.688;23.256;2023-07-29T02:03:41;5.95;;;5.15;;
20298;SDS011;10308;42.688;23.256;2023-07-29T02:06:09;8.75;;;5.22;;
20298;SDS011;10308;42.688;23.256;2023-07-29T02:08:37;5.65;;;5.00;;
20298;SDS011;10308;42.688;23.256;2023-07-29T02:11:07;4.80;;;4.38;;
20298;SDS011;10308;42.688;23.256;2023-07-29T02:13:37;4.85;;;4.35;;
20298;SDS011;10308;42.688;23.256;2023-07-29T02:16:04;6.45;;;4.72;;
20298;SDS011;10308;42.688;23.256;2023-07-29T02:18:33;4.80;;;4.32;;
20298;SDS011;10308;42.688;23.256;2023-07-29T02:21:01;5.53;;;4.60;;
20298;SDS011;10308;42.688;23.256;2023-07-29T02:23:29;5.35;;;4.25;;
20298;SDS011;10308;42.688;23.256;2023-07-29T02:25:59;5.60;;;4.78;;
20298;SDS011;10308;42.688;23.256;2023-07-29T02:28:26;5.07;;;4.57;;
20298;SDS011;10308;42.688;23.256;2023-07-29T02:31:13;7.05;;;4.78;;
20298;SDS011;10308;42.688;23.256;2023-07-29T02:33:42;5.95;;;4.97;;
20298;SDS011;10308;42.688;23.256;2023-07-29T02:36:11;7.53;;;5.28;;
20298;SDS011;10308;42.688;23.256;2023-07-29T02:38:39;6.60;;;5.50;;
20298;SDS011;10308;42.688;23.256;2023-07-29T02:41:07;8.32;;;5.35;;
20298;SDS011;10308;42.688;23.256;2023-07-29T02:43:39;8.75;;;5.32;;
20298;SDS011;10308;42.688;23.256;2023-07-29T02:46:09;7.57;;;6.20;;
20298;SDS011;10308;42.688;23.256;2023-07-29T02:48:36;8.15;;;6.22;;
20298;SDS011;10308;42.688;23.256;2023-07-29T02:51:05;6.78;;;6.18;;
20298;SDS011;10308;42.688;23.256;2023-07-29T02:53:33;7.85;;;7.05;;
20298;SDS011;10308;42.688;23.256;2023-07-29T02:56:03;11.07;;;7.07;;
20298;SDS011;10308;42.688;23.256;2023-07-29T02:58:32;9.27;;;7.00;;
20298;SDS011;10308;42.688;23.256;2023-07-29T03:01:00;8.57;;;6.80;;
20298;SDS011;10308;42.688;23.256;2023-07-29T03:03:33;7.63;;;6.30;;
20298;SDS011;10308;42.688;23.256;2023-07-29T03:06:00;6.50;;;5.70;;
20298;SDS011;10308;42.688;23.256;2023-07-29T03:08:28;6.05;;;5.22;;
20298;SDS011;10308;42.688;23.256;2023-07-29T03:10:57;5.30;;;4.88;;
20298;SDS011;10308;42.688;23.256;2023-07-29T03:13:25;7.47;;;5.47;;
20298;SDS011;10308;42.688;23.256;2023-07-29T03:15:54;8.18;;;5.10;;
20298;SDS011;10308;42.688;23.256;2023-07-29T03:18:34;5.35;;;4.85;;
20298;SDS011;10308;42.688;23.256;2023-07-29T03:21:05;6.28;;;4.85;;
20298;SDS011;10308;42.688;23.256;2023-07-29T03:23:32;7.68;;;5.43;;
20298;SDS011;10308;42.688;23.256;2023-07-29T03:26:03;5.18;;;4.70;;
20298;SDS011;10308;42.688;23.256;2023-07-29T03:28:37;5.82;;;4.65;;
20298;SDS011;10308;42.688;23.256;2023-07-29T03:31:09;4.90;;;4.40;;
20298;SDS011;10308;42.688;23.256;2023-07-29T03:33:42;5.05;;;4.50;;
20298;SDS011;10308;42.688;23.256;2023-07-29T03:36:10;6.68;;;4.80;;
20298;SDS011;10308;42.688;23.256;2023-07-29T03:38:38;6.25;;;4.60;;
20298;SDS011;10308;42.688;23.256;2023-07-29T03:41:06;5.07;;;4.57;;
20298;SDS011;10308;42.688;23.256;2023-07-29T03:43:35;6.45;;;5.18;;
20298;SDS011;10308;42.688;23.256;2023-07-29T03:46:03;5.50;;;4.68;;
20298;SDS011;10308;42.688;23.256;2023-07-29T03:48:36;5.60;;;4.68;;
20298;SDS011;10308;42.688;23.256;2023-07-29T03:51:10;6.25;;;5.03;;
20298;SDS011;10308;42.688;23.256;2023-07-29T03:53:40;5.63;;;4.15;;
20298;SDS011;10308;42.688;23.256;2023-07-29T03:56:08;6.97;;;4.70;;
20298;SDS011;10308;42.688;23.256;2023-07-29T03:58:38;4.75;;;4.35;;
20298;SDS011;10308;42.688;23.256;2023-07-29T04:01:06;5.95;;;4.47;;
20298;SDS011;10308;42.688;23.256;2023-07-29T04:03:35;5.00;;;4.50;;
20298;SDS011;10308;42.688;23.256;2023-07-29T04:06:07;6.13;;;4.57;;
20298;SDS011;10308;42.688;23.256;2023-07-29T04:08:37;5.25;;;4.70;;
20298;SDS011;10308;42.688;23.256;2023-07-29T04:11:04;5.57;;;4.80;;
20298;SDS011;10308;42.688;23.256;2023-07-29T04:13:34;4.82;;;4.30;;
20298;SDS011;10308;42.688;23.256;2023-07-29T04:16:06;5.40;;;4.13;;
20298;SDS011;10308;42.688;23.256;2023-07-29T04:18:36;5.05;;;4.18;;
20298;SDS011;10308;42.688;23.256;2023-07-29T04:21:05;11.30;;;10.35;;
20298;SDS011;10308;42.688;23.256;2023-07-29T04:23:49;38.20;;;35.10;;
20298;SDS011;10308;42.688;23.256;2023-07-29T04:26:19;28.38;;;26.10;;
20298;SDS011;10308;42.688;23.256;2023-07-29T04:28:46;18.52;;;16.92;;
20298;SDS011;10308;42.688;23.256;2023-07-29T04:31:17;18.40;;;16.65;;
20298;SDS011;10308;42.688;23.256;2023-07-29T04:33:45;16.30;;;14.70;;
20298;SDS011;10308;42.688;23.256;2023-07-29T04:36:14;9.15;;;8.35;;
20298;SDS011;10308;42.688;23.256;2023-07-29T04:38:44;7.30;;;6.68;;
20298;SDS011;10308;42.688;23.256;2023-07-29T04:41:13;6.15;;;5.18;;
20298;SDS011;10308;42.688;23.256;2023-07-29T04:43:43;5.30;;;4.80;;
20298;SDS011;10308;42.688;23.256;2023-07-29T04:46:15;5.10;;;4.60;;
20298;SDS011;10308;42.688;23.256;2023-07-29T04:48:45;4.88;;;4.47;;
20298;SDS011;10308;42.688;23.256;2023-07-29T04:51:16;5.25;;;4.22;;
20298;SDS011;10308;42.688;23.256;2023-07-29T04:53:44;4.68;;;4.28;;
20298;SDS011;10308;42.688;23.256;2023-07-29T04:56:16;4.07;;;3.88;;
20298;SDS011;10308;42.688;23.256;2023-07-29T04:58:45;4.47;;;4.07;;
20298;SDS011;10308;42.688;23.256;2023-07-29T05:01:13;4.70;;;4.20;;
20298;SDS011;10308;42.688;23.256;2023-07-29T05:03:41;4.70;;;4.30;;
20298;SDS011;10308;42.688;23.256;2023-07-29T05:06:09;5.55;;;5.05;;
20298;SDS011;10308;42.688;23.256;2023-07-29T05:08:36;4.68;;;4.28;;
20298;SDS011;10308;42.688;23.256;2023-07-29T05:11:04;4.90;;;4.47;;
20298;SDS011;10308;42.688;23.256;2023-07-29T05:13:33;5.18;;;4.68;;
20298;SDS011;10308;42.688;23.256;2023-07-29T05:16:02;5.40;;;4.90;;
20298;SDS011;10308;42.688;23.256;2023-07-29T05:18:31;5.75;;;5.35;;
20298;SDS011;10308;42.688;23.256;2023-07-29T05:21:01;5.63;;;5.13;;
20298;SDS011;10308;42.688;23.256;2023-07-29T05:23:31;5.20;;;4.70;;
20298;SDS011;10308;42.688;23.256;2023-07-29T05:25:59;5.47;;;4.97;;
20298;SDS011;10308;42.688;23.256;2023-07-29T05:28:28;8.85;;;5.68;;
20298;SDS011;10308;42.688;23.256;2023-07-29T05:31:05;5.80;;;5.25;;
20298;SDS011;10308;42.688;23.256;2023-07-29T05:33:33;5.68;;;5.18;;
20298;SDS011;10308;42.688;23.256;2023-07-29T05:36:03;5.78;;;5.20;;
20298;SDS011;10308;42.688;23.256;2023-07-29T05:38:32;5.85;;;5.25;;
20298;SDS011;10308;42.688;23.256;2023-07-29T05:41:00;7.53;;;4.97;;
20298;SDS011;10308;42.688;23.256;2023-07-29T05:43:27;6.63;;;5.32;;
20298;SDS011;10308;42.688;23.256;2023-07-29T05:45:55;5.65;;;5.18;;
20298;SDS011;10308;42.688;23.256;2023-07-29T05:48:25;6.15;;;5.38;;
20298;SDS011;10308;42.688;23.256;2023-07-29T05:50:53;6.00;;;5.40;;
20298;SDS011;10308;42.688;23.256;2023-07-29T05:53:22;7.53;;;6.63;;
20298;SDS011;10308;42.688;23.256;2023-07-29T05:55:49;6.40;;;5.80;;
20298;SDS011;10308;42.688;23.256;2023-07-29T05:58:17;5.88;;;5.28;;
20298;SDS011;10308;42.688;23.256;2023-07-29T06:00:44;7.07;;;5.63;;
20298;SDS011;10308;42.688;23.256;2023-07-29T06:03:12;6.70;;;6.20;;
20298;SDS011;10308;42.688;23.256;2023-07-29T06:05:42;6.22;;;5.60;;
20298;SDS011;10308;42.688;23.256;2023-07-29T06:08:10;6.07;;;5.38;;
20298;SDS011;10308;42.688;23.256;2023-07-29T06:10:37;5.38;;;4.88;;
20298;SDS011;10308;42.688;23.256;2023-07-29T06:13:06;6.65;;;5.55;;
20298;SDS011;10308;42.688;23.256;2023-07-29T06:15:34;7.90;;;6.90;;
20298;SDS011;10308;42.688;23.256;2023-07-29T06:18:02;6.22;;;5.60;;
20298;SDS011;10308;42.688;23.256;2023-07-29T06:20:30;5.97;;;5.47;;
20298;SDS011;10308;42.688;23.256;2023-07-29T06:23:03;6.20;;;5.60;;
20298;SDS011;10308;42.688;23.256;2023-07-29T06:25:31;5.10;;;4.70;;
20298;SDS011;10308;42.688;23.256;2023-07-29T06:27:59;5.07;;;4.47;;
20298;SDS011;10308;42.688;23.256;2023-07-29T06:30:27;5.90;;;5.30;;
20298;SDS011;10308;42.688;23.256;2023-07-29T06:32:55;5.18;;;4.68;;
20298;SDS011;10308;42.688;23.256;2023-07-29T06:35:26;5.97;;;5.45;;
20298;SDS011;10308;42.688;23.256;2023-07-29T06:37:54;5.03;;;4.63;;
20298;SDS011;10308;42.688;23.256;2023-07-29T06:40:23;5.63;;;5.13;;
20298;SDS011;10308;42.688;23.256;2023-07-29T06:42:51;6.75;;;5.95;;
20298;SDS011;10308;42.688;23.256;2023-07-29T06:45:19;6.57;;;5.45;;
20298;SDS011;10308;42.688;23.256;2023-07-29T06:47:47;5.60;;;5.10;;
20298;SDS011;10308;42.688;23.256;2023-07-29T06:50:15;9.00;;;5.47;;
20298;SDS011;10308;42.688;23.256;2023-07-29T06:52:43;5.97;;;5.43;;
20298;SDS011;10308;42.688;23.256;2023-07-29T06:55:13;5.43;;;4.93;;
20298;SDS011;10308;42.688;23.256;2023-07-29T06:57:42;5.25;;;4.85;;
20298;SDS011;10308;42.688;23.256;2023-07-29T07:00:10;5.57;;;5.07;;
20298;SDS011;10308;42.688;23.256;2023-07-29T07:02:39;5.25;;;4.80;;
20298;SDS011;10308;42.688;23.256;2023-07-29T07:05:06;6.43;;;5.55;;
20298;SDS011;10308;42.688;23.256;2023-07-29T07:07:35;6.55;;;5.93;;
20298;SDS011;10308;42.688;23.256;2023-07-29T07:10:05;5.57;;;5.07;;
20298;SDS011;10308;42.688;23.256;2023-07-29T07:12:33;6.10;;;5.60;;
20298;SDS011;10308;42.688;23.256;2023-07-29T07:15:07;5.68;;;5.28;;
20298;SDS011;10308;42.688;23.256;2023-07-29T07:17:36;8.80;;;5.53;;
20298;SDS011;10308;42.688;23.256;2023-07-29T07:20:04;6.03;;;5.53;;
20298;SDS011;10308;42.688;23.256;2023-07-29T07:22:36;9.15;;;5.90;;
20298;SDS011;10308;42.688;23.256;2023-07-29T07:25:04;6.13;;;5.53;;
20298;SDS011;10308;42.688;23.256;2023-07-29T07:27:34;5.95;;;5.43;;
20298;SDS011;10308;42.688;23.256;2023-07-29T07:30:07;5.78;;;5.20;;
20298;SDS011;10308;42.688;23.256;2023-07-29T07:32:36;6.05;;;4.95;;
20298;SDS011;10308;42.688;23.256;2023-07-29T07:35:04;5.30;;;4.90;;
20298;SDS011;10308;42.688;23.256;2023-07-29T07:37:33;6.95;;;5.43;;
20298;SDS011;10308;42.688;23.256;2023-07-29T07:40:03;6.68;;;6.13;;
20298;SDS011;10308;42.688;23.256;2023-07-29T07:42:32;6.25;;;5.57;;
20298;SDS011;10308;42.688;23.256;2023-07-29T07:45:00;6.60;;;5.18;;
20298;SDS011;10308;42.688;23.256;2023-07-29T07:47:32;4.95;;;4.50;;
20298;SDS011;10308;42.688;23.256;2023-07-29T07:50:00;5.40;;;4.90;;
20298;SDS011;10308;42.688;23.256;2023-07-29T07:52:28;5.25;;;4.85;;
20298;SDS011;10308;42.688;23.256;2023-07-29T07:54:56;5.55;;;5.05;;
20298;SDS011;10308;42.688;23.256;2023-07-29T07:57:24;5.40;;;4.90;;
20298;SDS011;10308;42.688;23.256;2023-07-29T07:59:52;5.15;;;4.70;;
20298;SDS011;10308;42.688;23.256;2023-07-29T08:02:20;5.25;;;4.75;;
20298;SDS011;10308;42.688;23.256;2023-07-29T08:04:51;6.45;;;4.82;;
20298;SDS011;10308;42.688;23.256;2023-07-29T08:07:19;4.70;;;4.40;;
20298;SDS011;10308;42.688;23.256;2023-07-29T08:09:49;4.55;;;4.10;;
20298;SDS011;10308;42.688;23.256;2023-07-29T08:12:17;7.80;;;4.55;;
20298;SDS011;10308;42.688;23.256;2023-07-29T08:14:47;5.70;;;5.10;;
20298;SDS011;10308;42.688;23.256;2023-07-29T08:17:15;4.68;;;4.28;;
20298;SDS011;10308;42.688;23.256;2023-07-29T08:19:43;4.43;;;4.03;;
20298;SDS011;10308;42.688;23.256;2023-07-29T08:22:12;5.25;;;4.68;;
20298;SDS011;10308;42.688;23.256;2023-07-29T08:24:40;5.07;;;4.68;;
20298;SDS011;10308;42.688;23.256;2023-07-29T08:27:07;5.38;;;4.88;;
20298;SDS011;10308;42.688;23.256;2023-07-29T08:29:37;5.00;;;4.60;;
20298;SDS011;10308;42.688;23.256;2023-07-29T08:32:06;5.95;;;4.30;;
20298;SDS011;10308;42.688;23.256;2023-07-29T08:34:33;5.25;;;4.60;;
20298;SDS011;10308;42.688;23.256;2023-07-29T08:37:01;4.30;;;3.90;;
20298;SDS011;10308;42.688;23.256;2023-07-29T08:39:31;6.13;;;5.57;;
20298;SDS011;10308;42.688;23.256;2023-07-29T08:42:00;6.95;;;5.47;;
20298;SDS011;10308;42.688;23.256;2023-07-29T08:44:34;5.15;;;4.68;;
20298;SDS011;10308;42.688;23.256;2023-07-29T08:47:06;5.57;;;4.90;;
20298;SDS011;10308;42.688;23.256;2023-07-29T08:49:33;3.47;;;3.17;;
20298;SDS011;10308;42.688;23.256;2023-07-29T08:52:02;5.10;;;3.25;;
20298;SDS011;10308;42.688;23.256;2023-07-29T08:54:35;4.15;;;3.72;;
20298;SDS011;10308;42.688;23.256;2023-07-29T08:57:03;4.55;;;3.95;;
20298;SDS011;10308;42.688;23.256;2023-07-29T08:59:34;4.65;;;3.88;;
20298;SDS011;10308;42.688;23.256;2023-07-29T10:01:34;3.67;;;3.38;;
20298;SDS011;10308;42.688;23.256;2023-07-29T10:04:06;2.78;;;2.58;;
20298;SDS011;10308;42.688;23.256;2023-07-29T10:06:34;4.15;;;2.58;;
20298;SDS011;10308;42.688;23.256;2023-07-29T10:09:02;2.92;;;2.70;;
20298;SDS011;10308;42.688;23.256;2023-07-29T10:11:32;3.75;;;2.42;;
20298;SDS011;10308;42.688;23.256;2023-07-29T10:14:02;2.03;;;1.80;;
20298;SDS011;10308;42.688;23.256;2023-07-29T10:16:36;2.45;;;2.25;;
20298;SDS011;10308;42.688;23.256;2023-07-29T10:19:06;3.88;;;3.47;;
20298;SDS011;10308;42.688;23.256;2023-07-29T10:21:39;3.45;;;2.38;;
20298;SDS011;10308;42.688;23.256;2023-07-29T10:24:14;2.58;;;2.10;;
20298;SDS011;10308;42.688;23.256;2023-07-29T10:26:43;1.80;;;1.70;;
20298;SDS011;10308;42.688;23.256;2023-07-29T10:29:17;1.70;;;1.60;;
20298;SDS011;10308;42.688;23.256;2023-07-29T10:31:55;2.00;;;1.90;;
20298;SDS011;10308;42.688;23.256;2023-07-29T10:34:27;2.10;;;2.00;;
20298;SDS011;10308;42.688;23.256;2023-07-29T10:36:56;2.40;;;2.20;;
20298;SDS011;10308;42.688;23.256;2023-07-29T10:39:23;2.40;;;2.20;;
20298;SDS011;10308;42.688;23.256;2023-07-29T10:41:55;2.42;;;2.28;;
20298;SDS011;10308;42.688;23.256;2023-07-29T10:47:19;2.28;;;1.90;;
20298;SDS011;10308;42.688;23.256;2023-07-29T10:49:51;2.30;;;2.10;;
20298;SDS011;10308;42.688;23.256;2023-07-29T10:52:39;2.00;;;1.80;;
20298;SDS011;10308;42.688;23.256;2023-07-29T10:55:23;2.75;;;2.00;;
20298;SDS011;10308;42.688;23.256;2023-07-29T10:58:07;2.60;;;1.90;;
20298;SDS011;10308;42.688;23.256;2023-07-29T11:00:38;1.90;;;1.80;;
20298;SDS011;10308;42.688;23.256;2023-07-29T11:03:08;2.00;;;1.90;;
20298;SDS011;10308;42.688;23.256;2023-07-29T11:05:44;3.30;;;2.67;;
20298;SDS011;10308;42.688;23.256;2023-07-29T11:08:20;3.22;;;2.80;;
20298;SDS011;10308;42.688;23.256;2023-07-29T11:11:02;1.92;;;1.83;;
20298;SDS011;10308;42.688;23.256;2023-07-29T11:13:33;1.83;;;1.73;;
20298;SDS011;10308;42.688;23.256;2023-07-29T11:16:01;1.95;;;1.75;;
20298;SDS011;10308;42.688;23.256;2023-07-29T11:18:35;2.22;;;2.00;;
20298;SDS011;10308;42.688;23.256;2023-07-29T11:21:02;2.17;;;1.98;;
20298;SDS011;10308;42.688;23.256;2023-07-29T11:23:31;1.83;;;1.73;;
20298;SDS011;10308;42.688;23.256;2023-07-29T11:26:01;1.80;;;1.70;;
20298;SDS011;10308;42.688;23.256;2023-07-29T11:28:31;2.53;;;2.33;;
20298;SDS011;10308;42.688;23.256;2023-07-29T11:31:05;2.55;;;2.22;;
20298;SDS011;10308;42.688;23.256;2023-07-29T11:33:38;1.88;;;1.75;;
20298;SDS011;10308;42.688;23.256;2023-07-29T11:36:18;2.35;;;1.77;;
20298;SDS011;10308;42.688;23.256;2023-07-29T11:38:46;1.55;;;1.42;;
20298;SDS011;10308;42.688;23.256;2023-07-29T11:41:18;1.98;;;1.88;;
20298;SDS011;10308;42.688;23.256;2023-07-29T11:43:47;1.95;;;1.60;;
20298;SDS011;10308;42.688;23.256;2023-07-29T11:46:15;2.85;;;1.80;;
20298;SDS011;10308;42.688;23.256;2023-07-29T11:48:45;2.30;;;1.95;;
20298;SDS011;10308;42.688;23.256;2023-07-29T11:51:12;2.00;;;1.70;;
20298;SDS011;10308;42.688;23.256;2023-07-29T11:53:41;2.00;;;1.88;;
20298;SDS011;10308;42.688;23.256;2023-07-29T11:56:10;1.98;;;1.80;;
20298;SDS011;10308;42.688;23.256;2023-07-29T11:58:43;1.90;;;1.80;;
20298;SDS011;10308;42.688;23.256;2023-07-29T12:01:14;1.80;;;1.70;;
20298;SDS011;10308;42.688;23.256;2023-07-29T12:03:41;2.08;;;1.88;;
20298;SDS011;10308;42.688;23.256;2023-07-29T12:06:11;1.83;;;1.73;;
20298;SDS011;10308;42.688;23.256;2023-07-29T12:08:39;3.60;;;1.70;;
20298;SDS011;10308;42.688;23.256;2023-07-29T12:11:08;1.70;;;1.60;;
20298;SDS011;10308;42.688;23.256;2023-07-29T12:13:38;2.17;;;1.98;;
20298;SDS011;10308;42.688;23.256;2023-07-29T12:16:09;2.00;;;1.80;;
20298;SDS011;10308;42.688;23.256;2023-07-29T12:18:39;1.73;;;1.63;;
20298;SDS011;10308;42.688;23.256;2023-07-29T12:21:08;1.80;;;1.70;;
20298;SDS011;10308;42.688;23.256;2023-07-29T12:23:43;1.70;;;1.60;;
20298;SDS011;10308;42.688;23.256;2023-07-29T12:26:11;3.05;;;1.88;;
20298;SDS011;10308;42.688;23.256;2023-07-29T12:28:44;1.70;;;1.60;;
20298;SDS011;10308;42.688;23.256;2023-07-29T12:31:13;1.85;;;1.75;;
20298;SDS011;10308;42.688;23.256;2023-07-29T12:33:41;1.80;;;1.70;;
20298;SDS011;10308;42.688;23.256;2023-07-29T12:36:12;1.90;;;1.80;;
20298;SDS011;10308;42.688;23.256;2023-07-29T12:38:44;2.20;;;2.00;;
20298;SDS011;10308;42.688;23.256;2023-07-29T12:41:11;1.85;;;1.75;;
20298;SDS011;10308;42.688;23.256;2023-07-29T12:43:39;2.17;;;1.90;;
20298;SDS011;10308;42.688;23.256;2023-07-29T12:46:08;2.08;;;1.90;;
20298;SDS011;10308;42.688;23.256;2023-07-29T12:48:36;1.95;;;1.75;;
20298;SDS011;10308;42.688;23.256;2023-07-29T12:51:04;2.85;;;1.65;;
20298;SDS011;10308;42.688;23.256;2023-07-29T12:53:31;1.80;;;1.70;;
20298;SDS011;10308;42.688;23.256;2023-07-29T12:56:03;1.90;;;1.80;;
20298;SDS011;10308;42.688;23.256;2023-07-29T12:58:33;2.00;;;1.80;;
20298;SDS011;10308;42.688;23.256;2023-07-29T13:00:59;2.00;;;1.83;;
20298;SDS011;10308;42.688;23.256;2023-07-29T13:03:30;2.22;;;1.73;;
20298;SDS011;10308;42.688;23.256;2023-07-29T13:05:58;1.77;;;1.67;;
20298;SDS011;10308;42.688;23.256;2023-07-29T13:08:29;2.00;;;1.90;;
20298;SDS011;10308;42.688;23.256;2023-07-29T13:10:58;1.88;;;1.70;;
20298;SDS011;10308;42.688;23.256;2023-07-29T13:13:31;1.75;;;1.65;;
20298;SDS011;10308;42.688;23.256;2023-07-29T13:16:00;1.92;;;1.80;;
20298;SDS011;10308;42.688;23.256;2023-07-29T13:18:28;1.90;;;1.80;;
20298;SDS011;10308;42.688;23.256;2023-07-29T13:20:58;2.38;;;1.92;;
20298;SDS011;10308;42.688;23.256;2023-07-29T13:23:26;1.67;;;1.58;;
20298;SDS011;10308;42.688;23.256;2023-07-29T13:25:56;2.15;;;1.90;;
20298;SDS011;10308;42.688;23.256;2023-07-29T13:28:24;2.40;;;2.10;;
20298;SDS011;10308;42.688;23.256;2023-07-29T13:30:58;1.90;;;1.80;;
20298;SDS011;10308;42.688;23.256;2023-07-29T13:33:26;2.25;;;1.90;;
20298;SDS011;10308;42.688;23.256;2023-07-29T13:35:54;1.70;;;1.60;;
20298;SDS011;10308;42.688;23.256;2023-07-29T13:38:22;2.50;;;2.15;;
20298;SDS011;10308;42.688;23.256;2023-07-29T13:40:50;2.70;;;2.50;;
20298;SDS011;10308;42.688;23.256;2023-07-29T13:43:19;3.72;;;2.83;;
20298;SDS011;10308;42.688;23.256;2023-07-29T13:45:50;4.47;;;3.20;;
20298;SDS011;10308;42.688;23.256;2023-07-29T13:48:20;3.13;;;2.92;;
20298;SDS011;10308;42.688;23.256;2023-07-29T13:50:48;3.00;;;2.70;;
20298;SDS011;10308;42.688;23.256;2023-07-29T13:53:16;4.35;;;3.10;;
20298;SDS011;10308;42.688;23.256;2023-07-29T13:55:44;3.53;;;3.00;;
20298;SDS011;10308;42.688;23.256;2023-07-29T13:58:12;3.70;;;3.33;;
20298;SDS011;10308;42.688;23.256;2023-07-29T14:00:39;3.70;;;3.40;;
20298;SDS011;10308;42.688;23.256;2023-07-29T14:03:07;2.72;;;2.53;;
20298;SDS011;10308;42.688;23.256;2023-07-29T14:05:35;3.38;;;2.33;;
20298;SDS011;10308;42.688;23.256;2023-07-29T14:08:02;13.15;;;12.02;;
20298;SDS011;10308;42.688;23.256;2023-07-29T14:10:30;11.85;;;10.68;;
20298;SDS011;10308;42.688;23.256;2023-07-29T14:13:00;6.88;;;6.18;;
20298;SDS011;10308;42.688;23.256;2023-07-29T14:15:28;4.03;;;3.70;;
20298;SDS011;10308;42.688;23.256;2023-07-29T14:17:59;3.92;;;3.00;;
20298;SDS011;10308;42.688;23.256;2023-07-29T14:20:29;2.30;;;2.20;;
20298;SDS011;10308;42.688;23.256;2023-07-29T14:23:01;3.30;;;3.00;;
20298;SDS011;10308;42.688;23.256;2023-07-29T14:25:29;5.93;;;4.10;;
20298;SDS011;10308;42.688;23.256;2023-07-29T14:27:59;3.25;;;3.03;;
20298;SDS011;10308;42.688;23.256;2023-07-29T14:30:27;2.95;;;2.70;;
20298;SDS011;10308;42.688;23.256;2023-07-29T14:33:04;3.17;;;2.55;;
20298;SDS011;10308;42.688;23.256;2023-07-29T14:35:32;2.97;;;2.78;;
20298;SDS011;10308;42.688;23.256;2023-07-29T14:38:02;3.90;;;3.47;;
20298;SDS011;10308;42.688;23.256;2023-07-29T14:40:29;2.80;;;2.60;;
20298;SDS011;10308;42.688;23.256;2023-07-29T14:42:59;2.90;;;2.70;;
20298;SDS011;10308;42.688;23.256;2023-07-29T14:45:29;3.53;;;3.22;;
20298;SDS011;10308;42.688;23.256;2023-07-29T14:47:57;2.70;;;2.50;;
20298;SDS011;10308;42.688;23.256;2023-07-29T14:50:25;2.53;;;2.33;;
20298;SDS011;10308;42.688;23.256;2023-07-29T14:52:52;2.92;;;2.70;;
20298;SDS011;10308;42.688;23.256;2023-07-29T14:55:23;4.28;;;3.38;;
20298;SDS011;10308;42.688;23.256;2023-07-29T14:57:51;3.75;;;3.45;;
20298;SDS011;10308;42.688;23.256;2023-07-29T15:00:19;3.58;;;3.28;;
20298;SDS011;10308;42.688;23.256;2023-07-29T15:02:48;3.30;;;3.10;;
20298;SDS011;10308;42.688;23.256;2023-07-29T15:05:15;5.45;;;3.00;;
20298;SDS011;10308;42.688;23.256;2023-07-29T15:07:42;2.70;;;2.40;;
20298;SDS011;10308;42.688;23.256;2023-07-29T15:10:10;3.42;;;2.80;;
20298;SDS011;10308;42.688;23.256;2023-07-29T15:12:40;3.78;;;3.47;;
20298;SDS011;10308;42.688;23.256;2023-07-29T15:15:10;4.57;;;4.18;;
20298;SDS011;10308;42.688;23.256;2023-07-29T15:17:41;3.50;;;3.20;;
20298;SDS011;10308;42.688;23.256;2023-07-29T15:20:10;4.88;;;4.43;;
20298;SDS011;10308;42.688;23.256;2023-07-29T15:22:39;5.82;;;3.50;;
20298;SDS011;10308;42.688;23.256;2023-07-29T15:25:08;2.88;;;2.67;;
20298;SDS011;10308;42.688;23.256;2023-07-29T15:27:37;3.08;;;2.55;;
20298;SDS011;10308;42.688;23.256;2023-07-29T15:30:07;2.83;;;2.63;;
20298;SDS011;10308;42.688;23.256;2023-07-29T15:32:39;4.25;;;2.97;;
20298;SDS011;10308;42.688;23.256;2023-07-29T15:35:08;3.00;;;2.80;;
20298;SDS011;10308;42.688;23.256;2023-07-29T15:37:36;2.90;;;2.50;;
20298;SDS011;10308;42.688;23.256;2023-07-29T15:40:03;3.20;;;3.00;;
20298;SDS011;10308;42.688;23.256;2023-07-29T15:42:32;4.18;;;3.80;;
20298;SDS011;10308;42.688;23.256;2023-07-29T15:44:59;4.97;;;3.50;;
20298;SDS011;10308;42.688;23.256;2023-07-29T15:47:34;4.13;;;3.25;;
20298;SDS011;10308;42.688;23.256;2023-07-29T15:50:02;4.38;;;3.10;;